Leon — D5BH4 — position and weather

sailwx.info

Track history (hours):
 
Tides and Currents Weather Stations Pressure Air Temp Water Temp Dewpoint Dewpoint Depression Visibility Wind Speed Wind Dir Waves Ship Positions

Leon

Last reported at 2016-Jul-13 06:24 UTC. Time now 2016-Sep-28 05:12 UTC.
Position N 36°09' W 005°22'.
Warning: this ship's position is months out of date.

Length 95 m; draft 5.3 m.

Type: Ship (hazmat cat C). MMSI: 636015519.

Date/timePositionNaut miles runAvg speedWind from/ knotsBaromVisibWave heightAir tempDewpointWater temp
2016-Jul-13 06:24N 36°09' W 005°22'0 0.0
2016-Jul-13 05:30N 36°09' W 005°22'0 0.0
2016-Jul-13 04:21N 36°09' W 005°22'0 0.0
2016-Jul-13 03:27N 36°09' W 005°22'0 0.1
2016-Jul-13 02:21N 36°08' W 005°22'0 0.0
2016-Jul-12 22:21N 36°08' W 005°22'0 0.0
2016-Jul-12 21:30N 36°08' W 005°22'0 0.1
2016-Jul-12 20:24N 36°09' W 005°22'0 0.0
2016-Jul-12 17:33N 36°09' W 005°22'0 0.0
2016-Jul-12 16:30N 36°09' W 005°22'0 0.0
2016-Jul-12 15:24N 36°09' W 005°22'0 0.0
2016-Jul-12 14:27N 36°09' W 005°22'0 0.0
2016-Jul-12 13:33N 36°09' W 005°22'0 0.0
2016-Jul-12 12:33N 36°09' W 005°22'0 0.0
2016-Jul-12 09:28N 36°08' W 005°22'4 4.0
2016-Jul-12 08:33N 36°05' W 005°22'4 4.1
2016-Jul-12 07:33N 36°01' W 005°24'209 7.7
2016-Jul-11 04:31N 36°56' W 009°35'10 9.9
2016-Jul-11 03:31N 37°06' W 009°38'1010.2
2016-Jul-11 02:31N 37°16' W 009°41'1010.0
2016-Jul-11 01:32N 37°26' W 009°44'11 9.9
2016-Jul-11 00:26N 37°36' W 009°47'1010.0
2016-Jul-10 23:28N 37°46' W 009°50'1010.1
2016-Jul-10 22:29N 37°55' W 009°53'910.1
2016-Jul-10 21:33N 38°04' W 009°55'1010.0
2016-Jul-10 20:33N 38°14' W 009°59'11 9.9
2016-Jul-10 19:27N 38°25' W 010°02'910.4
2016-Jul-10 18:33N 38°34' W 010°05'1110.6
2016-Jul-10 17:31N 38°45' W 010°07'1210.0
2016-Jul-10 16:20N 38°56' W 010°06'  
2016-Jul-06 11:25N 46°51' W 005°22'194 7.7
2016-Jul-05 10:12N 49°51' W 003°32'6 8.8
2016-Jul-05 09:33N 49°55' W 003°25'8 7.7
2016-Jul-05 08:33N 49°58' W 003°14'7 7.1
2016-Jul-05 07:33N 49°60' W 003°03'7 6.8
2016-Jul-05 06:29N 50°01' W 002°52'100 9.2
2016-Jul-04 19:33N 50°29' W 000°21'8 7.6
2016-Jul-04 18:32N 50°30' W 000°09'9 9.2
2016-Jul-04 17:33N 50°33' E 000°04'48 9.4
2016-Jul-04 12:31N 50°55' E 001°11'7 7.0
2016-Jul-04 11:32N 50°60' E 001°19'7 6.9
2016-Jul-04 10:33N 51°04' E 001°27'9 8.9
2016-Jul-04 09:33N 51°10' E 001°38'1110.9
2016-Jul-04 08:33N 51°19' E 001°48'1212.0
2016-Jul-04 07:33N 51°29' E 001°57'1211.6
2016-Jul-04 06:33N 51°38' E 002°10'1110.6
2016-Jul-04 05:33N 51°46' E 002°21'103 9.2
2016-Jul-03 18:24N 53°04' E 004°10'7 8.9
2016-Jul-03 17:33N 53°08' E 004°20'38 7.6
2016-Jul-03 12:31N 53°35' E 005°07'9 9.4
2016-Jul-03 11:33N 53°38' E 005°21'9 9.1
2016-Jul-03 10:33N 53°41' E 005°36'9 8.6
2016-Jul-03 09:33N 53°43' E 005°50'8 8.4
2016-Jul-03 08:33N 53°46' E 006°03'8 7.7
2016-Jul-03 07:33N 53°49' E 006°15'7 7.2
2016-Jul-03 06:33N 53°51' E 006°27'  
Track history (hours):
 
Tides and Currents Weather Stations Pressure Air Temp Water Temp Dewpoint Dewpoint Depression Visibility Wind Speed Wind Dir Waves Ship Positions

Leon

Last reported at 2016-Jul-13 06:24 UTC. Time now 2016-Sep-28 05:12 UTC.
Position N 36°09' W 005°22'.
Warning: this ship's position is months out of date.

Length 95 m; draft 5.3 m.

Type: Ship (hazmat cat C). MMSI: 636015519.

Date/timePositionNaut miles runAvg speedWind from/ knotsBaromVisibWave heightAir tempDewpointWater temp
2016-Jul-13 06:24N 36°09' W 005°22'0 0.0
2016-Jul-13 05:30N 36°09' W 005°22'0 0.0
2016-Jul-13 04:21N 36°09' W 005°22'0 0.0
2016-Jul-13 03:27N 36°09' W 005°22'0 0.1
2016-Jul-13 02:21N 36°08' W 005°22'0 0.0
2016-Jul-12 22:21N 36°08' W 005°22'0 0.0
2016-Jul-12 21:30N 36°08' W 005°22'0 0.1
2016-Jul-12 20:24N 36°09' W 005°22'0 0.0
2016-Jul-12 17:33N 36°09' W 005°22'0 0.0
2016-Jul-12 16:30N 36°09' W 005°22'0 0.0
2016-Jul-12 15:24N 36°09' W 005°22'0 0.0
2016-Jul-12 14:27N 36°09' W 005°22'0 0.0
2016-Jul-12 13:33N 36°09' W 005°22'0 0.0
2016-Jul-12 12:33N 36°09' W 005°22'0 0.0
2016-Jul-12 09:28N 36°08' W 005°22'4 4.0
2016-Jul-12 08:33N 36°05' W 005°22'4 4.1
2016-Jul-12 07:33N 36°01' W 005°24'209 7.7
2016-Jul-11 04:31N 36°56' W 009°35'10 9.9
2016-Jul-11 03:31N 37°06' W 009°38'1010.2
2016-Jul-11 02:31N 37°16' W 009°41'1010.0
2016-Jul-11 01:32N 37°26' W 009°44'11 9.9
2016-Jul-11 00:26N 37°36' W 009°47'1010.0
2016-Jul-10 23:28N 37°46' W 009°50'1010.1
2016-Jul-10 22:29N 37°55' W 009°53'910.1
2016-Jul-10 21:33N 38°04' W 009°55'1010.0
2016-Jul-10 20:33N 38°14' W 009°59'11 9.9
2016-Jul-10 19:27N 38°25' W 010°02'910.4
2016-Jul-10 18:33N 38°34' W 010°05'1110.6
2016-Jul-10 17:31N 38°45' W 010°07'1210.0
2016-Jul-10 16:20N 38°56' W 010°06'  
2016-Jul-06 11:25N 46°51' W 005°22'194 7.7
2016-Jul-05 10:12N 49°51' W 003°32'6 8.8
2016-Jul-05 09:33N 49°55' W 003°25'8 7.7
2016-Jul-05 08:33N 49°58' W 003°14'7 7.1
2016-Jul-05 07:33N 49°60' W 003°03'7 6.8
2016-Jul-05 06:29N 50°01' W 002°52'100 9.2
2016-Jul-04 19:33N 50°29' W 000°21'8 7.6
2016-Jul-04 18:32N 50°30' W 000°09'9 9.2
2016-Jul-04 17:33N 50°33' E 000°04'48 9.4
2016-Jul-04 12:31N 50°55' E 001°11'7 7.0
2016-Jul-04 11:32N 50°60' E 001°19'7 6.9
2016-Jul-04 10:33N 51°04' E 001°27'9 8.9
2016-Jul-04 09:33N 51°10' E 001°38'1110.9
2016-Jul-04 08:33N 51°19' E 001°48'1212.0
2016-Jul-04 07:33N 51°29' E 001°57'1211.6
2016-Jul-04 06:33N 51°38' E 002°10'1110.6
2016-Jul-04 05:33N 51°46' E 002°21'103 9.2
2016-Jul-03 18:24N 53°04' E 004°10'7 8.9
2016-Jul-03 17:33N 53°08' E 004°20'38 7.6
2016-Jul-03 12:31N 53°35' E 005°07'9 9.4
2016-Jul-03 11:33N 53°38' E 005°21'9 9.1
2016-Jul-03 10:33N 53°41' E 005°36'9 8.6
2016-Jul-03 09:33N 53°43' E 005°50'8 8.4
2016-Jul-03 08:33N 53°46' E 006°03'8 7.7
2016-Jul-03 07:33N 53°49' E 006°15'7 7.2
2016-Jul-03 06:33N 53°51' E 006°27'  

Dump ship's entire track history